createdAt,value
2018-06-21T00:00:56.916Z,20.10
2018-06-21T00:03:24.082Z,19.90
2018-06-21T00:05:51.250Z,19.90
2018-06-21T00:08:18.387Z,19.80
2018-06-21T00:10:45.572Z,19.90
2018-06-21T00:13:12.788Z,19.90
2018-06-21T00:15:39.947Z,19.80
2018-06-21T00:18:07.105Z,19.70
2018-06-21T00:20:34.279Z,19.60
2018-06-21T00:23:01.422Z,19.60
2018-06-21T00:25:28.731Z,19.50
2018-06-21T00:27:56.107Z,19.40
2018-06-21T00:30:23.257Z,19.40
2018-06-21T00:32:50.374Z,19.50
2018-06-21T00:35:17.504Z,19.50
2018-06-21T00:37:44.740Z,19.50
2018-06-21T00:40:11.890Z,19.40
2018-06-21T00:42:39.028Z,19.30
2018-06-21T00:45:08.077Z,19.30
2018-06-21T00:47:35.272Z,19.20
2018-06-21T00:50:02.441Z,19.20
2018-06-21T00:52:29.551Z,19.20
2018-06-21T00:54:57.171Z,19.20
2018-06-21T00:57:24.338Z,19.10
2018-06-21T00:59:51.462Z,19.20
2018-06-21T01:02:18.574Z,19.20
2018-06-21T01:04:45.747Z,19.00
2018-06-21T01:07:12.969Z,19.00
2018-06-21T01:09:40.140Z,19.10
2018-06-21T01:12:07.282Z,18.90
2018-06-21T01:14:34.392Z,19.00
2018-06-21T01:17:05.502Z,19.00
2018-06-21T01:19:32.661Z,18.90
2018-06-21T01:21:59.768Z,19.00
2018-06-21T01:24:27.106Z,19.00
2018-06-21T01:26:54.215Z,18.90
2018-06-21T01:29:21.301Z,18.90
2018-06-21T01:31:48.463Z,18.90
2018-06-21T01:34:15.628Z,18.80
2018-06-21T01:36:42.805Z,18.80
2018-06-21T01:39:10.196Z,18.90
2018-06-21T01:41:37.953Z,18.90
2018-06-21T01:44:05.120Z,18.80
2018-06-21T01:46:32.287Z,18.80
2018-06-21T01:48:59.401Z,18.90
2018-06-21T01:51:26.495Z,18.90
2018-06-21T01:53:53.782Z,18.80
2018-06-21T01:56:21.011Z,18.90
2018-06-21T01:58:48.142Z,18.90
2018-06-21T02:01:15.279Z,19.00
2018-06-21T02:03:42.445Z,19.10
2018-06-21T02:06:09.638Z,19.10
2018-06-21T02:08:36.760Z,19.10
2018-06-21T02:11:03.870Z,19.10
2018-06-21T02:13:30.974Z,19.00
2018-06-21T02:15:58.085Z,19.10
2018-06-21T02:18:25.230Z,19.30
2018-06-21T02:20:52.381Z,19.30
2018-06-21T02:23:19.922Z,19.20
2018-06-21T02:25:47.055Z,19.10
2018-06-21T02:28:14.226Z,19.10
2018-06-21T02:30:41.412Z,19.30
2018-06-21T02:33:08.526Z,19.40
2018-06-21T02:35:35.711Z,19.40
2018-06-21T02:38:02.843Z,19.30
2018-06-21T02:40:29.981Z,19.30
2018-06-21T02:42:57.098Z,19.50
2018-06-21T02:45:24.201Z,19.60
2018-06-21T02:47:51.319Z,19.80
2018-06-21T02:50:18.426Z,19.80
2018-06-21T02:52:45.625Z,19.80
2018-06-21T02:55:12.777Z,19.90
2018-06-21T02:57:39.955Z,19.80
2018-06-21T03:00:07.070Z,19.80
2018-06-21T03:02:34.186Z,19.90
2018-06-21T03:05:01.346Z,19.90
2018-06-21T03:07:28.467Z,20.10
2018-06-21T03:09:55.610Z,20.10
2018-06-21T03:12:23.602Z,20.10
2018-06-21T03:14:51.898Z,20.10
2018-06-21T03:17:19.051Z,20.10
2018-06-21T03:19:46.214Z,19.90
2018-06-21T03:22:13.383Z,20.10
2018-06-21T03:24:40.699Z,20.00
2018-06-21T03:27:08.412Z,20.00
2018-06-21T03:29:35.682Z,20.00
2018-06-21T03:32:02.952Z,19.90
2018-06-21T03:34:30.074Z,19.80
2018-06-21T03:36:57.390Z,19.70
2018-06-21T03:39:24.829Z,19.70
2018-06-21T03:41:51.937Z,19.60
2018-06-21T03:44:19.056Z,19.70
2018-06-21T03:46:46.202Z,19.70
2018-06-21T03:49:13.382Z,19.70
2018-06-21T03:51:40.607Z,19.70
2018-06-21T03:54:07.745Z,19.70
2018-06-21T03:56:34.869Z,19.60
2018-06-21T03:59:01.980Z,19.70
2018-06-21T04:01:29.099Z,19.60
2018-06-21T04:03:56.222Z,19.70
2018-06-21T04:06:23.317Z,19.80
2018-06-21T04:08:50.441Z,19.90
2018-06-21T04:11:17.553Z,19.90
2018-06-21T04:13:44.745Z,19.90
2018-06-21T04:16:11.935Z,20.00
2018-06-21T04:18:39.089Z,19.90
2018-06-21T04:21:07.570Z,19.90
2018-06-21T04:23:34.690Z,20.10
2018-06-21T04:26:01.870Z,20.10
2018-06-21T04:28:29.346Z,20.20
2018-06-21T04:30:56.506Z,20.20
2018-06-21T04:33:23.629Z,20.20
2018-06-21T04:35:50.927Z,20.40
2018-06-21T04:38:18.201Z,20.70
2018-06-21T04:40:45.395Z,20.80
2018-06-21T04:43:12.549Z,20.90
2018-06-21T04:45:40.121Z,20.90
2018-06-21T04:48:07.234Z,21.00
2018-06-21T04:50:34.342Z,21.20
2018-06-21T04:53:01.472Z,21.30
2018-06-21T04:55:28.569Z,21.70
2018-06-21T04:57:55.681Z,23.00
2018-06-21T05:02:49.969Z,27.50
2018-06-21T05:05:17.095Z,28.90
2018-06-21T05:07:44.247Z,30.00
2018-06-21T05:10:11.410Z,30.80
2018-06-21T05:12:38.645Z,31.20
2018-06-21T05:17:33.376Z,32.40
2018-06-21T05:20:00.478Z,32.80
2018-06-21T05:22:27.594Z,33.40
2018-06-21T05:24:54.705Z,34.10
2018-06-21T05:27:21.860Z,34.00
2018-06-21T05:29:49.004Z,34.50
2018-06-21T05:32:16.190Z,35.10
2018-06-21T05:34:43.342Z,35.00
2018-06-21T05:37:10.534Z,35.40
2018-06-21T05:39:37.662Z,36.70
2018-06-21T05:42:04.801Z,37.00
2018-06-21T05:46:59.038Z,37.10
2018-06-21T05:51:53.289Z,38.20
2018-06-21T05:54:20.398Z,38.80
2018-06-21T05:56:47.510Z,39.10
2018-06-21T05:59:14.690Z,39.80
2018-06-21T06:01:41.883Z,40.10
2018-06-21T06:04:11.033Z,40.30
2018-06-21T06:06:38.165Z,40.20
2018-06-21T06:09:07.082Z,41.40
2018-06-21T06:11:34.186Z,41.60
2018-06-21T06:14:01.317Z,42.30
2018-06-21T06:16:28.474Z,42.70
2018-06-21T06:18:55.592Z,43.20
2018-06-21T06:21:22.717Z,43.20
2018-06-21T06:23:56.693Z,42.50
2018-06-21T06:26:23.925Z,43.10
2018-06-21T06:28:51.296Z,42.60
2018-06-21T06:31:18.425Z,42.80
2018-06-21T06:33:45.946Z,42.60
2018-06-21T06:36:13.119Z,42.90
2018-06-21T06:38:40.290Z,42.90
2018-06-21T06:41:07.595Z,41.80
2018-06-21T06:43:34.702Z,42.90
2018-06-21T06:46:01.800Z,44.30
2018-06-21T06:50:56.484Z,43.30
2018-06-21T06:53:23.732Z,42.00
2018-06-21T06:55:50.859Z,41.30
2018-06-21T06:58:17.977Z,40.10
2018-06-21T07:00:45.119Z,39.00
2018-06-21T07:03:12.320Z,39.00
2018-06-21T07:05:39.544Z,40.10
2018-06-21T07:08:06.709Z,39.20
2018-06-21T07:13:00.922Z,42.60
2018-06-21T07:15:28.045Z,41.40
2018-06-21T07:17:55.162Z,40.60
2018-06-21T07:20:22.350Z,40.40
2018-06-21T07:22:49.418Z,43.00
2018-06-21T07:25:16.600Z,44.10
2018-06-21T07:27:43.784Z,43.80
2018-06-21T07:30:11.114Z,44.60
2018-06-21T07:32:38.231Z,45.40
2018-06-21T07:35:05.511Z,46.60
2018-06-21T07:37:32.621Z,47.00
2018-06-21T07:39:59.761Z,45.20
2018-06-21T07:42:27.000Z,43.80
2018-06-21T07:44:54.092Z,45.20
2018-06-21T07:47:21.226Z,45.80
2018-06-21T07:49:48.329Z,46.30
2018-06-21T07:52:15.534Z,47.00
2018-06-21T07:54:42.722Z,46.60
2018-06-21T07:57:09.894Z,46.80
2018-06-21T07:59:37.051Z,45.90
2018-06-21T08:02:04.101Z,44.10
2018-06-21T08:04:31.234Z,44.60
2018-06-21T08:06:58.359Z,44.40
2018-06-21T08:09:25.573Z,43.50
2018-06-21T08:11:52.673Z,43.50
2018-06-21T08:14:19.801Z,44.10
2018-06-21T08:16:46.960Z,44.50
2018-06-21T08:21:41.349Z,45.20
2018-06-21T08:24:08.875Z,44.70
2018-06-21T08:26:35.965Z,43.80
2018-06-21T08:29:03.085Z,43.90
2018-06-21T08:31:30.206Z,43.00
2018-06-21T08:36:24.453Z,42.40
2018-06-21T08:41:18.768Z,41.40
2018-06-21T08:43:45.938Z,39.90
2018-06-21T08:46:13.127Z,38.80
2018-06-21T08:48:40.322Z,37.20
2018-06-21T08:51:07.481Z,36.20
2018-06-21T08:53:34.623Z,35.80
2018-06-21T08:56:01.750Z,35.50
2018-06-21T08:58:28.924Z,35.00
2018-06-21T09:00:55.981Z,34.90
2018-06-21T09:05:50.492Z,34.00
2018-06-21T09:08:17.677Z,33.80
2018-06-21T09:10:44.827Z,34.10
2018-06-21T09:13:12.030Z,35.40
2018-06-21T09:15:39.154Z,35.80
2018-06-21T09:18:06.283Z,37.60
2018-06-21T09:20:33.457Z,39.20
2018-06-21T09:23:00.573Z,39.50
2018-06-21T09:25:27.702Z,40.20
2018-06-21T09:27:54.818Z,39.40
2018-06-21T09:30:21.954Z,36.70
2018-06-21T09:32:49.081Z,33.40
2018-06-21T09:35:16.207Z,29.90
2018-06-21T09:37:48.931Z,27.10
2018-06-21T09:40:21.997Z,26.80
2018-06-21T09:42:54.829Z,26.90
2018-06-21T09:45:27.769Z,27.20
2018-06-21T09:48:01.446Z,26.30
2018-06-21T09:50:28.601Z,25.30
2018-06-21T09:52:55.701Z,24.90
2018-06-21T09:55:22.829Z,24.90
2018-06-21T09:57:50.009Z,25.00
2018-06-21T10:00:22.880Z,24.80
2018-06-21T10:02:50.016Z,24.00
2018-06-21T10:05:17.265Z,23.70
2018-06-21T10:07:44.457Z,23.80
2018-06-21T10:10:11.790Z,23.80
2018-06-21T10:12:39.462Z,24.40
2018-06-21T10:15:06.566Z,25.10
2018-06-21T10:17:33.713Z,25.10
2018-06-21T10:20:00.842Z,24.90
2018-06-21T10:22:27.989Z,24.50
2018-06-21T10:24:55.101Z,24.60
2018-06-21T10:27:22.292Z,25.30
2018-06-21T10:29:49.413Z,25.70
2018-06-21T10:32:16.572Z,25.40
2018-06-21T10:34:43.723Z,24.70
2018-06-21T10:39:38.034Z,25.00
2018-06-21T10:42:05.279Z,24.60
2018-06-21T10:44:32.376Z,24.50
2018-06-21T10:46:59.485Z,24.20
2018-06-21T10:49:26.601Z,24.00
2018-06-21T10:51:53.722Z,24.20
2018-06-21T10:54:20.837Z,24.40
2018-06-21T10:56:48.046Z,24.20
2018-06-21T10:59:15.204Z,24.10
2018-06-21T11:01:42.396Z,24.60
2018-06-21T11:04:10.012Z,25.00
2018-06-21T11:06:37.225Z,25.40
2018-06-21T11:09:06.587Z,25.30
2018-06-21T11:11:33.709Z,25.10
2018-06-21T11:14:00.824Z,25.00
2018-06-21T11:16:27.950Z,25.20
2018-06-21T11:18:55.033Z,25.20
2018-06-21T11:21:22.161Z,25.30
2018-06-21T11:23:49.285Z,25.80
2018-06-21T11:26:16.405Z,25.70
2018-06-21T11:28:43.577Z,25.20
2018-06-21T11:31:10.754Z,25.20
2018-06-21T11:33:37.874Z,25.80
2018-06-21T11:36:04.966Z,25.80
2018-06-21T11:38:32.079Z,26.30
2018-06-21T11:40:59.176Z,26.40
2018-06-21T11:43:26.278Z,26.70
2018-06-21T11:45:53.378Z,26.50
2018-06-21T11:48:20.497Z,26.40
2018-06-21T11:50:47.603Z,26.10
2018-06-21T11:53:14.775Z,26.20
2018-06-21T11:55:41.911Z,25.90
2018-06-21T11:58:09.010Z,25.00
2018-06-21T12:05:30.611Z,24.90
2018-06-21T12:07:57.705Z,24.90
2018-06-21T12:10:24.808Z,24.90
2018-06-21T12:12:51.902Z,24.20
2018-06-21T12:15:18.998Z,24.40
2018-06-21T12:17:46.141Z,24.80
2018-06-21T12:20:13.290Z,24.80
2018-06-21T12:22:40.495Z,24.60
2018-06-21T12:25:07.630Z,24.50
2018-06-21T12:27:34.731Z,24.50
2018-06-21T12:30:01.845Z,24.60
2018-06-21T12:32:28.946Z,24.50
2018-06-21T12:34:56.045Z,24.70
2018-06-21T12:37:23.145Z,24.80
2018-06-21T12:39:51.054Z,24.70
2018-06-21T12:42:18.150Z,24.40
2018-06-21T12:44:45.309Z,24.80
2018-06-21T12:47:12.455Z,24.70
2018-06-21T12:49:39.590Z,24.90
2018-06-21T12:52:06.723Z,24.50
2018-06-21T12:54:33.860Z,24.40
2018-06-21T12:57:00.951Z,24.20
2018-06-21T13:01:56.055Z,24.00
2018-06-21T13:04:23.161Z,24.30
2018-06-21T13:06:50.269Z,24.40
2018-06-21T13:09:29.035Z,24.50
2018-06-21T13:12:35.386Z,24.40
2018-06-21T13:15:02.533Z,24.20
2018-06-21T13:17:30.716Z,23.30
2018-06-21T13:19:58.904Z,23.10
2018-06-21T13:22:26.581Z,23.30
2018-06-21T13:24:53.743Z,23.40
2018-06-21T13:27:20.850Z,23.60
2018-06-21T13:29:48.037Z,23.50
2018-06-21T13:34:42.380Z,23.60
2018-06-21T13:37:09.544Z,23.40
2018-06-21T13:39:36.646Z,23.20
2018-06-21T13:42:03.995Z,23.30
2018-06-21T13:44:31.260Z,23.30
2018-06-21T13:46:58.732Z,23.40
2018-06-21T13:49:26.007Z,23.50
2018-06-21T13:51:53.099Z,23.40
2018-06-21T13:54:20.202Z,23.40
2018-06-21T13:56:47.492Z,23.30
2018-06-21T13:59:15.271Z,23.40
2018-06-21T14:01:42.499Z,23.50
2018-06-21T14:04:09.657Z,23.40
2018-06-21T14:06:36.770Z,23.10
2018-06-21T14:09:06.005Z,23.00
2018-06-21T14:11:33.133Z,23.00
2018-06-21T14:14:00.250Z,22.70
2018-06-21T14:16:27.402Z,22.50
2018-06-21T14:18:54.673Z,22.30
2018-06-21T14:21:21.794Z,22.10
2018-06-21T14:23:48.906Z,22.20
2018-06-21T14:26:16.043Z,22.40
2018-06-21T14:28:43.242Z,22.70
2018-06-21T14:31:10.426Z,22.70
2018-06-21T14:33:37.551Z,22.80
2018-06-21T14:36:04.702Z,22.60
2018-06-21T14:38:31.804Z,22.70
2018-06-21T14:40:59.074Z,22.50
2018-06-21T14:43:26.173Z,22.60
2018-06-21T14:45:53.312Z,22.70
2018-06-21T14:48:20.639Z,22.50
2018-06-21T14:50:47.746Z,22.70
2018-06-21T14:53:14.934Z,22.50
2018-06-21T14:55:42.077Z,22.50
2018-06-21T14:58:09.238Z,22.50
2018-06-21T15:00:36.301Z,22.30
2018-06-21T15:03:03.439Z,22.30
2018-06-21T15:05:30.565Z,22.40
2018-06-21T15:07:57.667Z,22.30
2018-06-21T15:10:24.761Z,22.10
2018-06-21T15:12:51.877Z,22.00
2018-06-21T15:15:19.028Z,21.80
2018-06-21T15:17:46.154Z,21.90
2018-06-21T15:20:13.393Z,21.80
2018-06-21T15:22:40.528Z,21.50
2018-06-21T15:25:07.614Z,21.30
2018-06-21T15:27:34.731Z,21.20
2018-06-21T15:30:01.857Z,21.30
2018-06-21T15:32:28.957Z,21.50
2018-06-21T15:34:56.055Z,21.50
2018-06-21T15:37:23.154Z,21.60
2018-06-21T15:39:50.491Z,21.30
2018-06-21T15:42:17.605Z,21.10
2018-06-21T15:44:44.772Z,21.20
2018-06-21T15:47:11.997Z,21.10
2018-06-21T15:49:39.097Z,20.80
2018-06-21T15:52:06.305Z,20.80
2018-06-21T15:54:33.413Z,20.40
2018-06-21T15:57:00.561Z,20.40
2018-06-21T15:59:27.714Z,20.40
2018-06-21T16:01:54.845Z,20.50
2018-06-21T16:04:21.978Z,20.30
2018-06-21T16:06:49.162Z,20.30
2018-06-21T16:09:16.326Z,20.30
2018-06-21T16:11:43.460Z,20.00
2018-06-21T16:14:11.027Z,19.90
2018-06-21T16:16:38.215Z,20.10
2018-06-21T16:19:05.337Z,20.00
2018-06-21T16:21:32.453Z,20.00
2018-06-21T16:23:59.537Z,19.70
2018-06-21T16:26:26.645Z,19.80
2018-06-21T16:28:53.747Z,19.90
2018-06-21T16:31:20.866Z,20.00
2018-06-21T16:33:48.015Z,19.80
2018-06-21T16:36:15.152Z,19.60
2018-06-21T16:38:42.449Z,19.80
2018-06-21T16:41:09.712Z,19.70
2018-06-21T16:43:36.849Z,19.80
2018-06-21T16:46:04.276Z,19.80
2018-06-21T16:48:31.385Z,19.70
2018-06-21T16:50:58.495Z,19.60
2018-06-21T16:53:25.646Z,19.40
2018-06-21T16:55:53.709Z,19.40
2018-06-21T17:00:48.815Z,19.40
2018-06-21T17:03:15.945Z,19.30
2018-06-21T17:05:43.067Z,19.30
2018-06-21T17:08:11.095Z,19.30
2018-06-21T17:10:38.821Z,19.20
2018-06-21T17:13:05.962Z,19.10
2018-06-21T17:15:33.125Z,19.10
2018-06-21T17:18:00.274Z,19.10
2018-06-21T17:20:27.381Z,18.90
2018-06-21T17:22:54.515Z,18.90
2018-06-21T17:25:21.644Z,19.00
2018-06-21T17:27:48.936Z,19.00
2018-06-21T17:30:16.133Z,19.00
2018-06-21T17:32:43.206Z,19.00
2018-06-21T17:35:10.347Z,18.80
2018-06-21T17:37:37.462Z,18.60
2018-06-21T17:42:31.872Z,18.40
2018-06-21T17:44:58.982Z,18.20
2018-06-21T17:47:26.185Z,18.10
2018-06-21T17:49:53.409Z,18.10
2018-06-21T17:52:20.664Z,18.00
2018-06-21T17:54:47.864Z,17.90
2018-06-21T17:57:15.091Z,17.90
2018-06-21T17:59:42.333Z,18.00
2018-06-21T18:02:09.459Z,18.00
2018-06-21T18:04:36.570Z,17.90
2018-06-21T18:07:03.726Z,18.00
2018-06-21T18:09:30.832Z,17.90
2018-06-21T18:11:57.967Z,18.00
2018-06-21T18:14:25.126Z,17.90
2018-06-21T18:16:52.305Z,17.70
2018-06-21T18:19:19.474Z,17.80
2018-06-21T18:21:46.565Z,17.60
2018-06-21T18:24:13.730Z,17.20
2018-06-21T18:26:40.848Z,17.30
2018-06-21T18:29:08.046Z,17.40
2018-06-21T18:31:35.311Z,17.20
2018-06-21T18:34:02.428Z,17.10
2018-06-21T18:36:29.553Z,17.10
2018-06-21T18:38:56.736Z,17.00
2018-06-21T18:41:23.943Z,17.00
2018-06-21T18:43:51.214Z,16.90
2018-06-21T18:46:18.402Z,16.80
2018-06-21T18:48:45.523Z,16.80
2018-06-21T18:51:12.673Z,16.70
2018-06-21T18:53:39.814Z,16.70
2018-06-21T18:56:06.918Z,16.40
2018-06-21T18:58:34.025Z,16.30
2018-06-21T19:01:01.119Z,16.30
2018-06-21T19:03:28.282Z,16.10
2018-06-21T19:08:28.292Z,15.90
2018-06-21T19:11:01.343Z,15.90
2018-06-21T19:13:28.474Z,16.00
2018-06-21T19:15:55.619Z,15.90
2018-06-21T19:18:22.823Z,16.00
2018-06-21T19:20:49.986Z,15.70
2018-06-21T19:23:17.124Z,15.70
2018-06-21T19:25:44.254Z,15.70
2018-06-21T19:28:11.335Z,15.70
2018-06-21T19:30:38.485Z,15.60
2018-06-21T19:33:05.856Z,15.60
2018-06-21T19:35:32.962Z,15.60
2018-06-21T19:38:00.081Z,15.50
2018-06-21T19:40:27.210Z,15.40
2018-06-21T19:45:21.719Z,15.30
2018-06-21T19:47:49.019Z,15.40
2018-06-21T19:50:16.141Z,15.20
2018-06-21T19:52:43.321Z,15.00
2018-06-21T19:55:10.769Z,15.00
2018-06-21T19:57:38.257Z,14.90
2018-06-21T20:00:05.969Z,14.90
2018-06-21T20:02:38.718Z,14.70
2018-06-21T20:05:05.854Z,14.90
2018-06-21T20:07:33.032Z,15.00
2018-06-21T20:10:00.170Z,15.00
2018-06-21T20:12:27.355Z,15.00
2018-06-21T20:14:54.527Z,14.80
2018-06-21T20:17:21.704Z,14.90
2018-06-21T20:19:54.696Z,14.90
2018-06-21T20:22:21.852Z,14.80
2018-06-21T20:24:49.023Z,14.70
2018-06-21T20:27:16.204Z,14.80
2018-06-21T20:29:43.416Z,14.70
2018-06-21T20:32:10.530Z,14.60
2018-06-21T20:34:37.655Z,14.60
2018-06-21T20:37:09.377Z,14.60
2018-06-21T20:39:36.509Z,14.50
2018-06-21T20:42:03.635Z,14.70
2018-06-21T20:44:30.781Z,14.50
2018-06-21T20:46:57.894Z,14.40
2018-06-21T20:49:25.055Z,14.40
2018-06-21T20:51:52.185Z,14.50
2018-06-21T20:54:19.648Z,14.40
2018-06-21T20:56:46.883Z,14.40
2018-06-21T20:59:13.938Z,14.40
2018-06-21T21:01:41.941Z,14.30
2018-06-21T21:04:09.046Z,14.30
2018-06-21T21:06:36.176Z,14.20
2018-06-21T21:09:05.608Z,14.20
2018-06-21T21:11:32.768Z,14.20
2018-06-21T21:13:59.929Z,14.20
2018-06-21T21:16:27.071Z,14.30
2018-06-21T21:18:54.245Z,14.30
2018-06-21T21:21:21.465Z,14.20
2018-06-21T21:23:48.649Z,14.20
2018-06-21T21:26:15.787Z,14.20
2018-06-21T21:28:42.969Z,14.30
2018-06-21T21:31:10.071Z,14.30
2018-06-21T21:33:37.205Z,14.20
2018-06-21T21:36:04.699Z,14.00
2018-06-21T21:38:38.530Z,14.10
2018-06-21T21:41:06.418Z,14.00
2018-06-21T21:43:33.537Z,14.10
2018-06-21T21:46:00.634Z,14.00
2018-06-21T21:48:27.737Z,14.10
2018-06-21T21:50:54.873Z,14.10
2018-06-21T21:53:22.065Z,14.10
2018-06-21T21:58:16.442Z,14.00
2018-06-21T22:00:45.991Z,14.00
2018-06-21T22:03:13.294Z,14.00
2018-06-21T22:05:40.609Z,13.90
2018-06-21T22:08:08.060Z,13.80
2018-06-21T22:10:35.205Z,13.80
2018-06-21T22:13:02.403Z,13.80
2018-06-21T22:15:29.462Z,13.70
2018-06-21T22:17:56.906Z,13.60
2018-06-21T22:20:24.180Z,13.50
2018-06-21T22:22:51.370Z,13.50
2018-06-21T22:25:18.526Z,13.60
2018-06-21T22:27:45.631Z,13.50
2018-06-21T22:30:12.958Z,13.60
2018-06-21T22:32:40.075Z,13.50
2018-06-21T22:35:07.231Z,13.40
2018-06-21T22:37:34.370Z,13.30
2018-06-21T22:40:01.465Z,13.20
2018-06-21T22:42:28.705Z,13.10
2018-06-21T22:44:55.833Z,13.20
2018-06-21T22:47:22.994Z,13.10
2018-06-21T22:49:50.321Z,13.20
2018-06-21T22:52:17.437Z,13.10
2018-06-21T22:54:44.546Z,13.10
2018-06-21T22:57:11.685Z,13.00
2018-06-21T22:59:38.802Z,13.00
2018-06-21T23:02:06.106Z,12.80
2018-06-21T23:04:33.236Z,12.90
2018-06-21T23:07:00.416Z,13.00
2018-06-21T23:09:27.579Z,13.00
2018-06-21T23:11:54.718Z,12.80
2018-06-21T23:14:21.889Z,12.80
2018-06-21T23:16:49.770Z,12.80
2018-06-21T23:19:25.649Z,12.90
2018-06-21T23:21:53.014Z,12.90
2018-06-21T23:24:20.190Z,12.80
2018-06-21T23:26:47.402Z,12.70
2018-06-21T23:29:14.483Z,12.70
2018-06-21T23:31:41.613Z,12.80
2018-06-21T23:34:08.730Z,12.60
2018-06-21T23:36:35.858Z,12.60
2018-06-21T23:39:04.825Z,12.60
2018-06-21T23:41:31.999Z,12.60
2018-06-21T23:43:59.110Z,12.60
2018-06-21T23:46:26.223Z,12.50
2018-06-21T23:48:53.397Z,12.40
2018-06-21T23:51:20.533Z,12.40
2018-06-21T23:53:47.696Z,12.40
2018-06-21T23:56:14.810Z,12.40
2018-06-21T23:58:41.920Z,12.50
